createdAt,value
2018-02-11T00:01:24.819Z,96762.74
2018-02-11T00:03:53.503Z,96759.41
2018-02-11T00:06:23.726Z,96751.07
2018-02-11T00:08:53.339Z,96746.51
2018-02-11T00:11:21.822Z,96745.69
2018-02-11T00:13:52.150Z,96749.82
2018-02-11T00:16:23.259Z,96743.17
2018-02-11T00:18:54.339Z,96745.58
2018-02-11T00:21:22.922Z,96742.69
2018-02-11T00:23:51.495Z,96743.08
2018-02-11T00:26:19.986Z,96743.08
2018-02-11T00:28:48.681Z,96734.34
2018-02-11T00:31:22.490Z,96736.83
2018-02-11T00:33:53.417Z,96725.85
2018-02-11T00:36:21.897Z,96738.95
2018-02-11T00:38:52.239Z,96726.03
2018-02-11T00:41:23.281Z,96727.27
2018-02-11T00:43:55.242Z,96723.58
2018-02-11T00:46:25.401Z,96719.78
2018-02-11T00:48:55.745Z,96720.20
2018-02-11T00:51:25.214Z,96715.98
2018-02-11T00:53:55.384Z,96712.28
2018-02-11T00:56:25.777Z,96714.34
2018-02-11T00:58:58.321Z,96715.53
2018-02-11T01:01:28.609Z,96710.54
2018-02-11T01:04:00.815Z,96709.67
2018-02-11T01:06:29.318Z,96705.44
2018-02-11T01:08:57.895Z,96706.24
2018-02-11T01:11:27.221Z,96707.02
2018-02-11T01:13:55.674Z,96703.75
2018-02-11T01:16:29.844Z,96703.31
2018-02-11T01:19:00.086Z,96700.34
2018-02-11T01:21:30.951Z,96700.71
2018-02-11T01:24:02.202Z,96696.91
2018-02-11T01:26:30.791Z,96693.11
2018-02-11T01:29:00.002Z,96696.47
2018-02-11T01:31:31.189Z,96691.48
2018-02-11T01:34:00.663Z,96687.26
2018-02-11T01:36:29.958Z,96685.61
2018-02-11T01:39:00.232Z,96683.11
2018-02-11T01:41:31.175Z,96676.38
2018-02-11T01:44:00.411Z,96676.77
2018-02-11T01:46:28.997Z,96669.66
2018-02-11T01:48:59.086Z,96670.03
2018-02-11T01:51:41.900Z,96670.73
2018-02-11T01:54:13.417Z,96663.56
2018-02-11T01:56:42.072Z,96663.94
2018-02-11T01:59:10.490Z,96662.16
2018-02-11T02:01:39.861Z,96655.53
2018-02-11T02:04:16.412Z,96654.17
2018-02-11T02:06:45.025Z,96649.08
2018-02-11T02:09:15.108Z,96653.25
2018-02-11T02:11:44.007Z,96648.20
2018-02-11T02:14:15.380Z,96643.15
2018-02-11T02:16:43.946Z,96637.66
2018-02-11T02:19:14.475Z,96631.22
2018-02-11T02:21:44.495Z,96629.89
2018-02-11T02:24:23.232Z,96617.70
2018-02-11T02:26:52.841Z,96614.66
2018-02-11T02:29:33.910Z,96605.86
2018-02-11T02:32:04.517Z,96604.06
2018-02-11T02:34:33.997Z,96597.61
2018-02-11T02:37:02.641Z,96595.00
2018-02-11T02:39:31.130Z,96586.87
2018-02-11T02:41:59.712Z,96586.73
2018-02-11T02:44:41.197Z,96580.78
2018-02-11T02:47:10.221Z,96577.73
2018-02-11T02:49:43.941Z,96580.66
2018-02-11T02:52:15.707Z,96574.27
2018-02-11T02:54:50.933Z,96573.71
2018-02-11T02:57:19.489Z,96568.06
2018-02-11T02:59:51.573Z,96567.96
2018-02-11T03:02:21.986Z,96555.80
2018-02-11T03:04:53.010Z,96552.38
2018-02-11T03:07:23.300Z,96553.21
2018-02-11T03:09:54.995Z,96559.31
2018-02-11T03:12:23.462Z,96554.17
2018-02-11T03:14:52.064Z,96557.36
2018-02-11T03:17:22.338Z,96551.06
2018-02-11T03:19:53.965Z,96550.80
2018-02-11T03:22:22.534Z,96543.63
2018-02-11T03:24:51.098Z,96540.20
2018-02-11T03:27:19.604Z,96532.61
2018-02-11T03:29:48.480Z,96534.19
2018-02-11T03:32:30.478Z,96534.94
2018-02-11T03:35:00.167Z,96534.11
2018-02-11T03:37:28.785Z,96531.56
2018-02-11T03:39:57.464Z,96527.77
2018-02-11T03:42:25.964Z,96525.98
2018-02-11T03:44:57.510Z,96525.44
2018-02-11T03:47:25.972Z,96525.31
2018-02-11T03:49:56.153Z,96521.53
2018-02-11T03:52:32.651Z,96521.09
2018-02-11T03:55:02.868Z,96522.33
2018-02-11T03:57:31.500Z,96521.45
2018-02-11T04:00:00.187Z,96529.25
2018-02-11T04:02:30.642Z,96524.54
2018-02-11T04:05:01.648Z,96519.38
2018-02-11T04:07:30.296Z,96520.51
2018-02-11T04:10:00.523Z,96517.52
2018-02-11T04:12:29.774Z,96511.30
2018-02-11T04:14:59.984Z,96507.45
2018-02-11T04:17:31.236Z,96504.03
2018-02-11T04:20:02.274Z,96499.84
2018-02-11T04:22:30.966Z,96502.78
2018-02-11T04:25:03.359Z,96504.78
2018-02-11T04:27:43.876Z,96497.19
2018-02-11T04:30:19.145Z,96497.14
2018-02-11T04:32:49.282Z,96495.40
2018-02-11T04:35:18.056Z,96497.83
2018-02-11T04:37:48.655Z,96495.64
2018-02-11T04:40:40.946Z,96496.33
2018-02-11T04:43:11.514Z,96495.17
2018-02-11T04:45:40.130Z,96498.17
2018-02-11T04:48:15.842Z,96493.39
2018-02-11T04:50:46.404Z,96490.30
2018-02-11T04:53:19.030Z,96493.55
2018-02-11T04:55:48.396Z,96483.50
2018-02-11T04:58:16.821Z,96490.50
2018-02-11T05:00:45.253Z,96481.67
2018-02-11T05:03:16.900Z,96477.80
2018-02-11T05:05:48.194Z,96479.36
2018-02-11T05:08:19.176Z,96473.95
2018-02-11T05:10:47.694Z,96476.02
2018-02-11T05:13:33.462Z,96461.84
2018-02-11T05:16:05.131Z,96461.72
2018-02-11T05:18:35.214Z,96463.64
2018-02-11T05:21:03.718Z,96465.27
2018-02-11T05:23:33.033Z,96462.22
2018-02-11T05:26:01.911Z,96460.09
2018-02-11T05:28:31.242Z,96449.71
2018-02-11T05:30:59.710Z,96465.08
2018-02-11T05:33:28.185Z,96458.73
2018-02-11T05:35:59.838Z,96462.79
2018-02-11T05:38:45.744Z,96458.61
2018-02-11T05:41:15.047Z,96455.69
2018-02-11T05:43:44.483Z,96454.02
2018-02-11T05:46:13.131Z,96448.11
2018-02-11T05:48:41.706Z,96450.48
2018-02-11T05:51:12.712Z,96450.72
2018-02-11T05:53:42.966Z,96450.55
2018-02-11T05:56:16.072Z,96453.14
2018-02-11T05:58:47.976Z,96447.23
2018-02-11T06:01:18.565Z,96444.57
2018-02-11T06:03:48.841Z,96434.94
2018-02-11T06:06:28.373Z,96434.44
2018-02-11T06:08:57.007Z,96433.14
2018-02-11T06:11:28.571Z,96429.47
2018-02-11T06:13:57.873Z,96428.97
2018-02-11T06:16:30.237Z,96421.94
2018-02-11T06:19:03.103Z,96421.95
2018-02-11T06:21:33.532Z,96422.07
2018-02-11T06:24:03.653Z,96419.52
2018-02-11T06:26:35.164Z,96424.69
2018-02-11T06:29:03.887Z,96417.48
2018-02-11T06:31:39.154Z,96421.57
2018-02-11T06:34:07.638Z,96418.95
2018-02-11T06:36:36.081Z,96408.08
2018-02-11T06:39:06.219Z,96414.17
2018-02-11T06:41:40.861Z,96417.95
2018-02-11T06:44:11.073Z,96417.02
2018-02-11T06:46:46.538Z,96413.20
2018-02-11T06:49:16.765Z,96413.94
2018-02-11T06:51:48.083Z,96419.20
2018-02-11T06:54:18.539Z,96423.55
2018-02-11T06:56:48.822Z,96423.48
2018-02-11T06:59:21.335Z,96421.48
2018-02-11T07:01:51.499Z,96416.53
2018-02-11T07:04:20.110Z,96419.41
2018-02-11T07:06:56.217Z,96414.17
2018-02-11T07:09:26.499Z,96404.73
2018-02-11T07:11:56.823Z,96401.92
2018-02-11T07:14:45.716Z,96398.33
2018-02-11T07:17:16.935Z,96393.59
2018-02-11T07:19:47.261Z,96393.23
2018-02-11T07:22:19.918Z,96391.66
2018-02-11T07:24:50.082Z,96383.14
2018-02-11T07:27:18.824Z,96381.28
2018-02-11T07:29:50.051Z,96377.73
2018-02-11T07:32:44.415Z,96376.67
2018-02-11T07:35:14.685Z,96372.08
2018-02-11T07:37:47.305Z,96363.44
2018-02-11T07:40:18.406Z,96371.03
2018-02-11T07:42:47.005Z,96371.95
2018-02-11T07:45:18.167Z,96365.48
2018-02-11T07:47:47.588Z,96364.16
2018-02-11T07:50:29.469Z,96362.79
2018-02-11T07:52:59.609Z,96359.91
2018-02-11T07:55:29.914Z,96359.26
2018-02-11T07:58:02.437Z,96348.67
2018-02-11T08:00:32.791Z,96345.16
2018-02-11T08:03:11.939Z,96341.61
2018-02-11T08:05:40.749Z,96340.70
2018-02-11T08:08:11.151Z,96334.91
2018-02-11T08:10:41.086Z,96336.77
2018-02-11T08:13:10.270Z,96333.33
2018-02-11T08:15:40.529Z,96324.30
2018-02-11T08:18:10.737Z,96323.69
2018-02-11T08:20:41.272Z,96326.80
2018-02-11T08:23:12.308Z,96328.00
2018-02-11T08:25:42.016Z,96319.47
2018-02-11T08:28:10.504Z,96315.50
2018-02-11T08:30:41.673Z,96317.32
2018-02-11T08:33:12.064Z,96308.83
2018-02-11T08:35:44.498Z,96308.31
2018-02-11T08:38:13.733Z,96299.43
2018-02-11T08:40:47.910Z,96295.84
2018-02-11T08:43:17.257Z,96286.41
2018-02-11T08:45:47.328Z,96285.75
2018-02-11T08:48:18.833Z,96281.89
2018-02-11T08:50:47.417Z,96281.30
2018-02-11T08:53:19.996Z,96276.11
2018-02-11T08:55:48.684Z,96275.94
2018-02-11T08:58:17.488Z,96279.34
2018-02-11T09:00:46.674Z,96275.70
2018-02-11T09:03:15.256Z,96262.81
2018-02-11T09:05:43.914Z,96271.52
2018-02-11T09:08:14.668Z,96266.67
2018-02-11T09:10:44.843Z,96257.80
2018-02-11T09:13:15.221Z,96251.37
2018-02-11T09:15:46.746Z,96249.73
2018-02-11T09:18:17.854Z,96243.63
2018-02-11T09:20:46.629Z,96241.31
2018-02-11T09:23:18.318Z,96239.17
2018-02-11T09:25:48.599Z,96234.61
2018-02-11T09:28:17.195Z,96227.41
2018-02-11T09:30:48.475Z,96224.00
2018-02-11T09:33:18.651Z,96220.70
2018-02-11T09:35:47.243Z,96218.34
2018-02-11T09:38:15.790Z,96203.19
2018-02-11T09:40:46.926Z,96200.25
2018-02-11T09:43:20.317Z,96201.15
2018-02-11T09:45:50.818Z,96193.52
2018-02-11T09:48:20.216Z,96193.77
2018-02-11T09:50:50.396Z,96192.74
2018-02-11T09:53:40.689Z,96184.27
2018-02-11T09:56:11.800Z,96190.98
2018-02-11T09:58:40.357Z,96192.67
2018-02-11T10:01:14.474Z,96191.84
2018-02-11T10:03:47.870Z,96192.20
2018-02-11T10:06:21.823Z,96182.15
2018-02-11T10:08:51.400Z,96176.04
2018-02-11T10:11:22.035Z,96176.83
2018-02-11T10:13:53.365Z,96171.53
2018-02-11T10:16:42.395Z,96177.44
2018-02-11T10:19:16.725Z,96175.50
2018-02-11T10:21:46.305Z,96190.31
2018-02-11T10:24:15.551Z,96164.63
2018-02-11T10:26:46.664Z,96156.71
2018-02-11T10:29:23.279Z,96155.34
2018-02-11T10:31:51.949Z,96156.12
2018-02-11T10:34:21.943Z,96145.42
2018-02-11T10:36:56.279Z,96142.55
2018-02-11T10:39:24.743Z,96134.91
2018-02-11T10:41:53.457Z,96142.35
2018-02-11T10:44:25.942Z,96132.09
2018-02-11T10:46:54.532Z,96126.26
2018-02-11T10:49:23.934Z,96123.16
2018-02-11T10:51:55.334Z,96113.59
2018-02-11T10:54:28.906Z,96114.08
2018-02-11T10:56:58.291Z,96112.25
2018-02-11T10:59:29.492Z,96106.13
2018-02-11T11:02:02.809Z,96101.54
2018-02-11T11:04:31.358Z,96096.22
2018-02-11T11:06:59.881Z,96090.47
2018-02-11T11:09:29.791Z,96092.23
2018-02-11T11:11:58.400Z,96096.58
2018-02-11T11:14:27.659Z,96088.30
2018-02-11T11:16:56.918Z,96092.95
2018-02-11T11:19:25.594Z,96094.30
2018-02-11T11:21:54.209Z,96088.22
2018-02-11T11:24:35.254Z,96080.00
2018-02-11T11:27:06.267Z,96083.16
2018-02-11T11:29:51.468Z,96082.75
2018-02-11T11:32:22.331Z,96076.27
2018-02-11T11:34:51.083Z,96078.50
2018-02-11T11:39:52.707Z,96075.02
2018-02-11T11:42:21.203Z,96084.03
2018-02-11T11:44:52.340Z,96080.31
2018-02-11T11:47:23.783Z,96073.91
2018-02-11T11:49:53.456Z,96066.66
2018-02-11T11:52:23.879Z,96058.92
2018-02-11T11:54:53.281Z,96052.52
2018-02-11T11:57:24.120Z,96048.88
2018-02-11T11:59:54.737Z,96051.92
2018-02-11T12:02:23.556Z,96042.72
2018-02-11T12:04:53.631Z,96041.22
2018-02-11T12:07:41.118Z,96035.49
2018-02-11T12:10:16.836Z,96036.57
2018-02-11T12:15:32.655Z,96034.78
2018-02-11T12:18:01.939Z,96038.50
2018-02-11T12:20:32.351Z,96043.49
2018-02-11T12:23:00.948Z,96039.27
2018-02-11T12:25:30.387Z,96026.75
2018-02-11T12:27:59.058Z,96023.69
2018-02-11T12:30:29.229Z,96016.91
2018-02-11T12:32:57.773Z,96024.02
2018-02-11T12:35:28.383Z,96013.14
2018-02-11T12:38:16.045Z,96008.93
2018-02-11T12:40:55.143Z,96012.66
2018-02-11T12:43:30.155Z,95997.27
2018-02-11T12:45:58.752Z,95999.89
2018-02-11T12:48:28.932Z,95995.89
2018-02-11T12:50:57.880Z,95985.80
2018-02-11T12:53:28.218Z,95981.92
2018-02-11T12:55:56.772Z,95982.02
2018-02-11T12:58:25.362Z,95972.03
2018-02-11T13:01:07.660Z,95977.47
2018-02-11T13:03:37.935Z,95971.54
2018-02-11T13:06:09.034Z,95964.39
2018-02-11T13:08:39.219Z,95962.34
2018-02-11T13:11:07.751Z,95963.66
2018-02-11T13:13:38.056Z,95959.75
2018-02-11T13:16:09.426Z,95968.12
2018-02-11T13:18:38.880Z,95962.89
2018-02-11T13:21:07.412Z,95970.55
2018-02-11T13:23:43.372Z,95967.47
2018-02-11T13:26:20.273Z,95968.81
2018-02-11T13:28:50.978Z,95967.16
2018-02-11T13:31:23.230Z,95964.69
2018-02-11T13:33:51.939Z,95960.87
2018-02-11T13:36:22.349Z,95961.51
2018-02-11T13:38:51.059Z,95962.66
2018-02-11T13:41:21.378Z,95965.14
2018-02-11T13:43:53.923Z,95967.25
2018-02-11T13:46:28.890Z,95958.98
2018-02-11T13:48:57.479Z,95960.29
2018-02-11T13:51:34.274Z,95961.27
2018-02-11T13:54:02.936Z,95963.91
2018-02-11T13:56:34.092Z,95958.03
2018-02-11T13:59:05.336Z,95957.52
2018-02-11T14:01:44.630Z,95955.05
2018-02-11T14:04:15.495Z,95954.03
2018-02-11T14:06:44.724Z,95952.51
2018-02-11T14:09:14.792Z,95950.52
2018-02-11T14:11:49.177Z,95952.60
2018-02-11T14:14:18.646Z,95951.87
2018-02-11T14:16:49.706Z,95952.84
2018-02-11T14:19:20.421Z,95948.66
2018-02-11T14:21:49.122Z,95951.59
2018-02-11T14:24:22.403Z,95946.52
2018-02-11T14:26:53.977Z,95948.54
2018-02-11T14:29:24.284Z,95944.23
2018-02-11T14:31:55.530Z,95949.27
2018-02-11T14:34:25.736Z,95952.23
2018-02-11T14:36:58.410Z,95943.53
2018-02-11T14:39:29.479Z,95945.24
2018-02-11T14:41:58.068Z,95942.67
2018-02-11T14:44:26.761Z,95949.23
2018-02-11T14:46:56.276Z,95946.73
2018-02-11T14:49:25.590Z,95945.09
2018-02-11T14:51:56.893Z,95943.74
2018-02-11T14:54:30.270Z,95937.42
2018-02-11T14:57:01.594Z,95938.64
2018-02-11T14:59:30.235Z,95939.04
2018-02-11T15:02:00.588Z,95940.32
2018-02-11T15:04:31.558Z,95938.61
2018-02-11T15:07:17.545Z,95939.80
2018-02-11T15:09:48.250Z,95935.92
2018-02-11T15:12:17.232Z,95930.00
2018-02-11T15:14:48.431Z,95930.70
2018-02-11T15:17:17.174Z,95935.63
2018-02-11T15:19:46.997Z,95938.50
2018-02-11T15:22:17.435Z,95939.27
2018-02-11T15:24:48.747Z,95935.91
2018-02-11T15:27:19.121Z,95940.91
2018-02-11T15:29:50.158Z,95940.91
2018-02-11T15:32:20.585Z,95944.14
2018-02-11T15:34:50.007Z,95944.47
2018-02-11T15:37:18.864Z,95941.41
2018-02-11T15:39:47.513Z,95945.52
2018-02-11T15:42:19.418Z,95937.98
2018-02-11T15:44:50.347Z,95929.16
2018-02-11T15:47:18.829Z,95933.23
2018-02-11T15:49:47.728Z,95936.85
2018-02-11T15:52:16.325Z,95933.03
2018-02-11T15:54:46.232Z,95931.72
2018-02-11T15:57:19.638Z,95933.29
2018-02-11T15:59:52.515Z,95936.91
2018-02-11T16:02:21.988Z,95941.52
2018-02-11T16:04:51.339Z,95941.09
2018-02-11T16:07:21.738Z,95935.62
2018-02-11T16:09:52.686Z,95936.41
2018-02-11T16:12:22.798Z,95936.05
2018-02-11T16:14:51.505Z,95935.59
2018-02-11T16:17:21.105Z,95934.70
2018-02-11T16:19:53.546Z,95936.77
2018-02-11T16:22:22.101Z,95939.30
2018-02-11T16:24:53.682Z,95943.84
2018-02-11T16:27:25.424Z,95943.38
2018-02-11T16:29:56.480Z,95948.38
2018-02-11T16:32:25.532Z,95943.67
2018-02-11T16:34:54.316Z,95949.20
2018-02-11T16:37:23.633Z,95950.84
2018-02-11T16:39:54.126Z,95957.16
2018-02-11T16:42:26.882Z,95960.52
2018-02-11T16:44:55.644Z,95961.80
2018-02-11T16:47:27.685Z,95960.95
2018-02-11T16:49:57.971Z,95965.16
2018-02-11T16:52:30.763Z,95968.92
2018-02-11T16:55:00.213Z,95973.98
2018-02-11T17:00:22.345Z,95963.20
2018-02-11T17:02:56.869Z,95960.27
2018-02-11T17:05:27.302Z,95950.66
2018-02-11T17:07:58.099Z,95956.52
2018-02-11T17:10:29.547Z,95950.70
2018-02-11T17:12:58.304Z,95949.02
2018-02-11T17:15:27.059Z,95944.91
2018-02-11T17:17:57.404Z,95955.34
2018-02-11T17:20:29.260Z,95951.16
2018-02-11T17:22:59.683Z,95959.52
2018-02-11T17:25:30.549Z,95967.88
2018-02-11T17:27:59.155Z,95963.27
2018-02-11T17:30:27.889Z,95962.88
2018-02-11T17:32:59.345Z,95965.41
2018-02-11T17:35:29.649Z,95969.16
2018-02-11T17:38:02.456Z,95972.09
2018-02-11T17:40:32.871Z,95962.95
2018-02-11T17:43:03.867Z,95960.87
2018-02-11T17:45:33.429Z,95964.23
2018-02-11T17:48:02.220Z,95955.05
2018-02-11T17:50:37.668Z,95955.48
2018-02-11T17:53:06.769Z,95959.63
2018-02-11T17:55:37.210Z,95955.02
2018-02-11T17:58:06.646Z,95965.88
2018-02-11T18:00:35.307Z,95969.23
2018-02-11T18:03:20.313Z,95972.55
2018-02-11T18:05:49.037Z,95972.16
2018-02-11T18:08:21.211Z,95974.23
2018-02-11T18:10:58.077Z,95972.55
2018-02-11T18:13:28.691Z,95977.98
2018-02-11T18:15:57.398Z,95977.98
2018-02-11T18:18:28.561Z,95973.81
2018-02-11T18:21:00.207Z,95974.23
2018-02-11T18:23:28.902Z,95969.23
2018-02-11T18:26:00.118Z,95971.70
2018-02-11T18:28:30.383Z,95965.02
2018-02-11T18:30:59.050Z,95965.41
2018-02-11T18:33:27.844Z,95964.98
2018-02-11T18:35:57.283Z,95962.48
2018-02-11T18:38:25.836Z,95966.23
2018-02-11T18:40:56.327Z,95973.77
2018-02-11T18:43:25.055Z,95970.41
2018-02-11T18:45:53.745Z,95977.92
2018-02-11T18:48:22.438Z,95979.98
2018-02-11T18:50:50.985Z,95981.27
2018-02-11T18:53:19.593Z,95982.09
2018-02-11T18:55:48.298Z,95983.78
2018-02-11T18:58:21.936Z,95988.39
2018-02-11T19:00:50.581Z,95983.31
2018-02-11T19:03:19.273Z,95987.13
2018-02-11T19:05:48.789Z,95985.89
2018-02-11T19:08:23.619Z,95995.89
2018-02-11T19:10:52.153Z,96000.07
2018-02-11T19:13:20.928Z,96007.22
2018-02-11T19:15:50.283Z,96006.36
2018-02-11T19:18:25.269Z,96006.36
2018-02-11T19:20:55.643Z,96003.03
2018-02-11T19:23:25.063Z,95996.78
2018-02-11T19:25:54.624Z,96002.61
2018-02-11T19:28:24.155Z,95998.03
2018-02-11T19:31:02.119Z,95995.96
2018-02-11T19:33:30.760Z,95991.85
2018-02-11T19:36:00.865Z,95990.56
2018-02-11T19:38:32.536Z,95997.28
2018-02-11T19:41:03.011Z,96006.47
2018-02-11T19:43:32.496Z,96017.72
2018-02-11T19:46:02.781Z,96029.08
2018-02-11T19:48:36.527Z,96032.84
2018-02-11T19:51:07.163Z,96024.08
2018-02-11T19:53:41.398Z,96031.98
2018-02-11T19:56:10.809Z,96036.16
2018-02-11T19:58:40.208Z,96044.48
2018-02-11T20:01:12.335Z,96046.63
2018-02-11T20:03:41.027Z,96047.84
2018-02-11T20:06:09.819Z,96044.48
2018-02-11T20:08:38.513Z,96051.64
2018-02-11T20:11:08.778Z,96055.39
2018-02-11T20:13:40.901Z,96052.06
2018-02-11T20:16:11.423Z,96059.14
2018-02-11T20:18:40.317Z,96062.86
2018-02-11T20:21:09.449Z,96064.97
2018-02-11T20:23:38.204Z,96066.22
2018-02-11T20:26:06.901Z,96068.29
2018-02-11T20:28:36.745Z,96063.29
2018-02-11T20:31:05.711Z,96059.10
2018-02-11T20:33:34.424Z,96063.68
2018-02-11T20:36:05.750Z,96069.90
2018-02-11T20:38:36.308Z,96074.91
2018-02-11T20:41:07.925Z,96082.41
2018-02-11T20:43:36.634Z,96087.41
2018-02-11T20:46:06.446Z,96084.91
2018-02-11T20:48:35.141Z,96093.27
2018-02-11T20:51:04.134Z,96090.77
2018-02-11T20:53:34.542Z,96089.95
2018-02-11T20:56:04.078Z,96093.70
2018-02-11T20:58:32.758Z,96096.98
2018-02-11T21:01:03.247Z,96096.20
2018-02-11T21:03:33.478Z,96103.70
2018-02-11T21:06:05.343Z,96102.45
2018-02-11T21:08:35.588Z,96101.20
2018-02-11T21:11:07.478Z,96099.99
2018-02-11T21:13:37.822Z,96097.84
2018-02-11T21:16:09.950Z,96096.52
2018-02-11T21:18:38.436Z,96109.84
2018-02-11T21:21:09.779Z,96113.53
2018-02-11T21:23:40.806Z,96120.13
2018-02-11T21:26:11.060Z,96124.20
2018-02-11T21:28:42.240Z,96124.62
2018-02-11T21:31:22.339Z,96128.73
2018-02-11T21:33:52.536Z,96129.55
2018-02-11T21:36:21.481Z,96128.30
2018-02-11T21:38:54.678Z,96133.34
2018-02-11T21:41:25.896Z,96135.45
2018-02-11T21:43:54.596Z,96134.63
2018-02-11T21:46:25.887Z,96130.92
2018-02-11T21:48:54.521Z,96135.53
2018-02-11T21:51:23.114Z,96142.25
2018-02-11T21:53:53.306Z,96145.58
2018-02-11T21:56:22.919Z,96144.36
2018-02-11T21:58:53.495Z,96149.80
2018-02-11T22:01:24.466Z,96146.86
2018-02-11T22:03:52.983Z,96150.27
2018-02-11T22:06:21.493Z,96153.59
2018-02-11T22:08:50.806Z,96159.05
2018-02-11T22:11:22.020Z,96161.95
2018-02-11T22:13:50.730Z,96158.16
2018-02-11T22:16:29.057Z,96157.77
2018-02-11T22:18:58.762Z,96155.27
2018-02-11T22:21:28.071Z,96165.67
2018-02-11T22:23:56.600Z,96163.16
2018-02-11T22:26:25.125Z,96164.02
2018-02-11T22:28:53.607Z,96163.98
2018-02-11T22:31:22.834Z,96170.23
2018-02-11T22:34:09.826Z,96176.88
2018-02-11T22:36:43.027Z,96172.30
2018-02-11T22:39:14.521Z,96175.59
2018-02-11T22:41:45.567Z,96185.17
2018-02-11T22:44:19.178Z,96195.99
2018-02-11T22:46:47.701Z,96196.38
2018-02-11T22:49:17.835Z,96194.66
2018-02-11T22:51:49.851Z,96192.91
2018-02-11T22:54:25.735Z,96187.86
2018-02-11T22:56:56.383Z,96182.43
2018-02-11T22:59:27.375Z,96177.82
2018-02-11T23:01:57.130Z,96178.17
2018-02-11T23:04:27.199Z,96178.59
2018-02-11T23:06:57.579Z,96181.92
2018-02-11T23:09:28.596Z,96181.02
2018-02-11T23:11:57.080Z,96179.77
2018-02-11T23:14:27.828Z,96191.41
2018-02-11T23:16:56.513Z,96186.84
2018-02-11T23:19:30.174Z,96189.73
2018-02-11T23:21:59.432Z,96191.72
2018-02-11T23:24:30.042Z,96190.82
2018-02-11T23:27:00.338Z,96181.99
2018-02-11T23:29:33.461Z,96192.03
2018-02-11T23:32:02.096Z,96191.99
2018-02-11T23:34:30.477Z,96198.63
2018-02-11T23:37:00.961Z,96210.27
2018-02-11T23:39:29.547Z,96218.16
2018-02-11T23:41:58.015Z,96217.73
2018-02-11T23:44:26.601Z,96216.48
2018-02-11T23:46:55.094Z,96226.09
2018-02-11T23:49:26.106Z,96226.53
2018-02-11T23:51:55.030Z,96219.02
2018-02-11T23:54:25.488Z,96217.30
2018-02-11T23:56:58.401Z,96223.55
2018-02-11T23:59:28.658Z,96226.44
